sensor_id;sensor_type;location;lat;lon;timestamp;pressure;altitude;pressure_sealevel;temperature;humidity
23473;BME280;11909;52.516;13.564;2023-09-19T00:00:35;99967.91;;;18.27;100.00
23473;BME280;11909;52.516;13.564;2023-09-19T00:03:03;99960.34;;;18.27;100.00
23473;BME280;11909;52.516;13.564;2023-09-19T00:05:34;99973.91;;;18.29;99.88
23473;BME280;11909;52.516;13.564;2023-09-19T00:08:03;99972.88;;;18.21;100.00
23473;BME280;11909;52.516;13.564;2023-09-19T00:10:32;99965.72;;;18.20;100.00
23473;BME280;11909;52.516;13.564;2023-09-19T00:13:02;99963.28;;;18.18;100.00
23473;BME280;11909;52.516;13.564;2023-09-19T00:15:40;99971.16;;;18.16;100.00
23473;BME280;11909;52.516;13.564;2023-09-19T00:18:08;99973.13;;;18.16;99.86
23473;BME280;11909;52.516;13.564;2023-09-19T00:20:37;99966.56;;;18.08;100.00
23473;BME280;11909;52.516;13.564;2023-09-19T00:23:05;99961.72;;;18.05;100.00
23473;BME280;11909;52.516;13.564;2023-09-19T00:25:35;99957.66;;;18.02;100.00
23473;BME280;11909;52.516;13.564;2023-09-19T00:28:04;99957.50;;;17.99;100.00
23473;BME280;11909;52.516;13.564;2023-09-19T00:30:34;99963.44;;;17.97;100.00
23473;BME280;11909;52.516;13.564;2023-09-19T00:33:06;99952.31;;;17.97;100.00
23473;BME280;11909;52.516;13.564;2023-09-19T00:35:34;99956.03;;;17.89;100.00
23473;BME280;11909;52.516;13.564;2023-09-19T00:38:03;99962.19;;;17.82;100.00
23473;BME280;11909;52.516;13.564;2023-09-19T00:40:33;99959.41;;;17.82;100.00
23473;BME280;11909;52.516;13.564;2023-09-19T00:43:02;99958.94;;;17.80;100.00
23473;BME280;11909;52.516;13.564;2023-09-19T00:45:33;99968.06;;;17.81;100.00
23473;BME280;11909;52.516;13.564;2023-09-19T00:48:06;99954.91;;;17.77;100.00
23473;BME280;11909;52.516;13.564;2023-09-19T00:50:36;99957.66;;;17.77;100.00
23473;BME280;11909;52.516;13.564;2023-09-19T00:53:03;99956.63;;;17.70;100.00
23473;BME280;11909;52.516;13.564;2023-09-19T00:55:34;99950.63;;;17.68;100.00
23473;BME280;11909;52.516;13.564;2023-09-19T00:58:04;99956.16;;;17.68;100.00
23473;BME280;11909;52.516;13.564;2023-09-19T01:00:33;99953.75;;;17.66;100.00
23473;BME280;11909;52.516;13.564;2023-09-19T01:03:01;99956.53;;;17.66;100.00
23473;BME280;11909;52.516;13.564;2023-09-19T01:05:31;99969.94;;;17.64;100.00
23473;BME280;11909;52.516;13.564;2023-09-19T01:08:00;99964.28;;;17.60;100.00
23473;BME280;11909;52.516;13.564;2023-09-19T01:10:29;99957.00;;;17.56;100.00
23473;BME280;11909;52.516;13.564;2023-09-19T01:13:01;99954.22;;;17.56;100.00
23473;BME280;11909;52.516;13.564;2023-09-19T01:15:40;99947.50;;;17.57;100.00
23473;BME280;11909;52.516;13.564;2023-09-19T01:18:21;99951.56;;;17.59;100.00
23473;BME280;11909;52.516;13.564;2023-09-19T01:21:05;99956.28;;;17.59;100.00
23473;BME280;11909;52.516;13.564;2023-09-19T01:23:43;99964.97;;;17.57;100.00
23473;BME280;11909;52.516;13.564;2023-09-19T01:26:30;99964.97;;;17.57;100.00
23473;BME280;11909;52.516;13.564;2023-09-19T01:29:17;99964.06;;;17.53;100.00
23473;BME280;11909;52.516;13.564;2023-09-19T01:31:59;99961.94;;;17.50;100.00
23473;BME280;11909;52.516;13.564;2023-09-19T01:34:43;99959.09;;;17.46;100.00
23473;BME280;11909;52.516;13.564;2023-09-19T01:37:14;99961.03;;;17.46;100.00
23473;BME280;11909;52.516;13.564;2023-09-19T01:39:47;99965.88;;;17.49;100.00
23473;BME280;11909;52.516;13.564;2023-09-19T01:42:23;99965.09;;;17.48;100.00
23473;BME280;11909;52.516;13.564;2023-09-19T01:44:59;99961.03;;;17.46;100.00
23473;BME280;11909;52.516;13.564;2023-09-19T01:47:34;99971.44;;;17.49;100.00
23473;BME280;11909;52.516;13.564;2023-09-19T01:50:10;99965.78;;;17.45;100.00
23473;BME280;11909;52.516;13.564;2023-09-19T01:52:45;99968.56;;;17.45;100.00
23473;BME280;11909;52.516;13.564;2023-09-19T01:55:16;99963.09;;;17.49;100.00
23473;BME280;11909;52.516;13.564;2023-09-19T01:57:51;99963.81;;;17.46;100.00
23473;BME280;11909;52.516;13.564;2023-09-19T02:00:21;99963.81;;;17.46;100.00
23473;BME280;11909;52.516;13.564;2023-09-19T02:02:52;99960.69;;;17.47;100.00
23473;BME280;11909;52.516;13.564;2023-09-19T02:05:23;99967.16;;;17.52;100.00
23473;BME280;11909;52.516;13.564;2023-09-19T02:07:51;99960.34;;;17.49;100.00
23473;BME280;11909;52.516;13.564;2023-09-19T02:10:20;99967.28;;;17.43;100.00
23473;BME280;11909;52.516;13.564;2023-09-19T02:12:49;99967.97;;;17.40;100.00
23473;BME280;11909;52.516;13.564;2023-09-19T02:15:17;99971.53;;;17.40;100.00
23473;BME280;11909;52.516;13.564;2023-09-19T02:17:45;99980.91;;;17.36;100.00
23473;BME280;11909;52.516;13.564;2023-09-19T02:20:15;99984.84;;;17.34;100.00
23473;BME280;11909;52.516;13.564;2023-09-19T02:22:43;99990.41;;;17.34;100.00
23473;BME280;11909;52.516;13.564;2023-09-19T02:25:11;99986.00;;;17.33;100.00
23473;BME280;11909;52.516;13.564;2023-09-19T02:27:40;99995.69;;;17.27;100.00
23473;BME280;11909;52.516;13.564;2023-09-19T02:30:10;99987.25;;;17.24;100.00
23473;BME280;11909;52.516;13.564;2023-09-19T02:32:38;99993.38;;;17.29;100.00
23473;BME280;11909;52.516;13.564;2023-09-19T02:35:07;99991.19;;;17.23;100.00
23473;BME280;11909;52.516;13.564;2023-09-19T02:37:39;99991.19;;;17.23;100.00
23473;BME280;11909;52.516;13.564;2023-09-19T02:40:08;100002.84;;;17.28;100.00
23473;BME280;11909;52.516;13.564;2023-09-19T02:42:46;99990.03;;;17.24;100.00
23473;BME280;11909;52.516;13.564;2023-09-19T02:45:16;99991.75;;;17.28;100.00
23473;BME280;11909;52.516;13.564;2023-09-19T02:47:48;99988.75;;;17.21;100.00
23473;BME280;11909;52.516;13.564;2023-09-19T02:50:16;100002.63;;;17.21;100.00
23473;BME280;11909;52.516;13.564;2023-09-19T02:52:46;99997.44;;;17.19;100.00
23473;BME280;11909;52.516;13.564;2023-09-19T02:55:17;100003.91;;;17.24;100.00
23473;BME280;11909;52.516;13.564;2023-09-19T02:57:47;100004.91;;;17.19;100.00
23473;BME280;11909;52.516;13.564;2023-09-19T03:00:16;100008.53;;;17.19;100.00
23473;BME280;11909;52.516;13.564;2023-09-19T03:02:49;100013.25;;;17.19;100.00
23473;BME280;11909;52.516;13.564;2023-09-19T03:05:17;100020.25;;;17.16;100.00
23473;BME280;11909;52.516;13.564;2023-09-19T03:07:47;100020.03;;;17.09;100.00
23473;BME280;11909;52.516;13.564;2023-09-19T03:10:18;100020.03;;;17.09;100.00
23473;BME280;11909;52.516;13.564;2023-09-19T03:12:46;100023.63;;;17.10;100.00
23473;BME280;11909;52.516;13.564;2023-09-19T03:15:14;100022.00;;;17.09;100.00
23473;BME280;11909;52.516;13.564;2023-09-19T03:17:44;100024.66;;;17.17;100.00
23473;BME280;11909;52.516;13.564;2023-09-19T03:20:12;100020.72;;;17.06;100.00
23473;BME280;11909;52.516;13.564;2023-09-19T03:22:41;100016.31;;;17.05;100.00
23473;BME280;11909;52.516;13.564;2023-09-19T03:25:10;100018.75;;;17.06;100.00
23473;BME280;11909;52.516;13.564;2023-09-19T03:27:39;100009.97;;;17.04;100.00
23473;BME280;11909;52.516;13.564;2023-09-19T03:30:08;100027.09;;;17.19;100.00
23473;BME280;11909;52.516;13.564;2023-09-19T03:32:36;100019.22;;;17.09;100.00
23473;BME280;11909;52.516;13.564;2023-09-19T03:35:05;100020.59;;;17.02;100.00
23473;BME280;11909;52.516;13.564;2023-09-19T03:37:33;100025.09;;;17.07;100.00
23473;BME280;11909;52.516;13.564;2023-09-19T03:40:01;100031.25;;;17.13;100.00
23473;BME280;11909;52.516;13.564;2023-09-19T03:42:33;100036.72;;;17.22;100.00
23473;BME280;11909;52.516;13.564;2023-09-19T03:45:03;100036.00;;;17.25;99.32
23473;BME280;11909;52.516;13.564;2023-09-19T03:47:32;100034.97;;;17.29;97.91
23473;BME280;11909;52.516;13.564;2023-09-19T03:50:01;100043.19;;;17.26;97.74
23473;BME280;11909;52.516;13.564;2023-09-19T03:52:29;100051.03;;;17.36;96.62
23473;BME280;11909;52.516;13.564;2023-09-19T03:54:57;100046.78;;;17.39;95.93
23473;BME280;11909;52.516;13.564;2023-09-19T03:57:25;100050.81;;;17.41;95.27
23473;BME280;11909;52.516;13.564;2023-09-19T03:59:54;100053.50;;;17.38;94.84
23473;BME280;11909;52.516;13.564;2023-09-19T04:02:23;100057.53;;;17.40;94.07
23473;BME280;11909;52.516;13.564;2023-09-19T04:04:51;100066.34;;;17.42;93.47
23473;BME280;11909;52.516;13.564;2023-09-19T04:07:19;100062.72;;;17.42;93.21
23473;BME280;11909;52.516;13.564;2023-09-19T04:09:49;100059.50;;;17.40;93.14
23473;BME280;11909;52.516;13.564;2023-09-19T04:12:19;100059.13;;;17.41;92.53
23473;BME280;11909;52.516;13.564;2023-09-19T04:14:47;100054.19;;;17.34;92.76
23473;BME280;11909;52.516;13.564;2023-09-19T04:17:17;100063.19;;;17.31;92.71
23473;BME280;11909;52.516;13.564;2023-09-19T04:19:46;100068.50;;;17.37;92.15
23473;BME280;11909;52.516;13.564;2023-09-19T04:22:14;100070.72;;;17.43;90.83
23473;BME280;11909;52.516;13.564;2023-09-19T04:24:42;100074.28;;;17.31;91.47
23473;BME280;11909;52.516;13.564;2023-09-19T04:27:10;100070.22;;;17.29;89.94
23473;BME280;11909;52.516;13.564;2023-09-19T04:29:39;100073.06;;;17.20;89.83
23473;BME280;11909;52.516;13.564;2023-09-19T04:32:08;100083.00;;;17.21;88.84
23473;BME280;11909;52.516;13.564;2023-09-19T04:34:38;100081.44;;;17.32;87.02
23473;BME280;11909;52.516;13.564;2023-09-19T04:37:05;100095.09;;;17.38;86.24
23473;BME280;11909;52.516;13.564;2023-09-19T04:39:33;100093.00;;;17.34;85.59
23473;BME280;11909;52.516;13.564;2023-09-19T04:42:02;100103.63;;;17.32;84.91
23473;BME280;11909;52.516;13.564;2023-09-19T04:44:31;100105.81;;;17.27;85.27
23473;BME280;11909;52.516;13.564;2023-09-19T04:46:58;100103.34;;;17.25;84.90
23473;BME280;11909;52.516;13.564;2023-09-19T04:49:27;100109.59;;;17.22;84.62
23473;BME280;11909;52.516;13.564;2023-09-19T04:51:56;100121.97;;;17.25;83.73
23473;BME280;11909;52.516;13.564;2023-09-19T04:54:24;100116.06;;;17.26;83.55
23473;BME280;11909;52.516;13.564;2023-09-19T04:56:53;100118.38;;;17.24;83.73
23473;BME280;11909;52.516;13.564;2023-09-19T04:59:21;100119.66;;;17.27;83.29
23473;BME280;11909;52.516;13.564;2023-09-19T05:01:49;100124.84;;;17.28;83.48
23473;BME280;11909;52.516;13.564;2023-09-19T05:04:17;100121.03;;;17.20;83.79
23473;BME280;11909;52.516;13.564;2023-09-19T05:06:45;100132.25;;;17.24;83.56
23473;BME280;11909;52.516;13.564;2023-09-19T05:09:15;100122.78;;;17.25;83.40
23473;BME280;11909;52.516;13.564;2023-09-19T05:11:46;100125.28;;;17.18;83.96
23473;BME280;11909;52.516;13.564;2023-09-19T05:14:14;100133.94;;;17.16;84.25
23473;BME280;11909;52.516;13.564;2023-09-19T05:16:43;100134.91;;;17.20;83.65
23473;BME280;11909;52.516;13.564;2023-09-19T05:19:11;100145.25;;;17.11;84.07
23473;BME280;11909;52.516;13.564;2023-09-19T05:21:38;100151.78;;;17.06;84.49
23473;BME280;11909;52.516;13.564;2023-09-19T05:24:07;100155.88;;;17.09;84.56
23473;BME280;11909;52.516;13.564;2023-09-19T05:26:38;100154.38;;;17.12;83.91
23473;BME280;11909;52.516;13.564;2023-09-19T05:29:06;100161.75;;;17.08;84.29
23473;BME280;11909;52.516;13.564;2023-09-19T05:31:34;100162.63;;;16.99;84.78
23473;BME280;11909;52.516;13.564;2023-09-19T05:34:07;100169.88;;;17.13;83.41
23473;BME280;11909;52.516;13.564;2023-09-19T05:36:36;100161.56;;;17.13;83.50
23473;BME280;11909;52.516;13.564;2023-09-19T05:39:06;100168.09;;;17.08;83.55
23473;BME280;11909;52.516;13.564;2023-09-19T05:41:35;100173.03;;;17.02;83.62
23473;BME280;11909;52.516;13.564;2023-09-19T05:44:08;100170.97;;;16.90;84.57
23473;BME280;11909;52.516;13.564;2023-09-19T05:46:36;100183.78;;;17.04;83.97
23473;BME280;11909;52.516;13.564;2023-09-19T05:49:03;100185.75;;;17.03;83.81
23473;BME280;11909;52.516;13.564;2023-09-19T05:51:31;100190.50;;;17.03;83.22
23473;BME280;11909;52.516;13.564;2023-09-19T05:53:59;100189.06;;;16.97;83.51
23473;BME280;11909;52.516;13.564;2023-09-19T05:56:27;100198.00;;;16.94;83.97
23473;BME280;11909;52.516;13.564;2023-09-19T05:58:55;100201.59;;;16.94;84.10
23473;BME280;11909;52.516;13.564;2023-09-19T06:01:24;100208.59;;;17.00;83.31
23473;BME280;11909;52.516;13.564;2023-09-19T06:03:52;100216.44;;;16.98;83.82
23473;BME280;11909;52.516;13.564;2023-09-19T06:06:20;100219.91;;;16.86;84.60
23473;BME280;11909;52.516;13.564;2023-09-19T06:08:50;100219.22;;;16.98;83.70
23473;BME280;11909;52.516;13.564;2023-09-19T06:11:18;100221.69;;;16.91;83.79
23473;BME280;11909;52.516;13.564;2023-09-19T06:13:47;100231.63;;;16.92;83.79
23473;BME280;11909;52.516;13.564;2023-09-19T06:16:14;100232.09;;;16.94;83.78
23473;BME280;11909;52.516;13.564;2023-09-19T06:18:44;100228.69;;;16.88;83.90
23473;BME280;11909;52.516;13.564;2023-09-19T06:21:12;100238.78;;;16.93;83.79
23473;BME280;11909;52.516;13.564;2023-09-19T06:23:40;100242.72;;;16.92;83.64
23473;BME280;11909;52.516;13.564;2023-09-19T06:26:08;100248.56;;;16.99;83.14
23473;BME280;11909;52.516;13.564;2023-09-19T06:28:35;100241.81;;;16.79;84.28
23473;BME280;11909;52.516;13.564;2023-09-19T06:31:03;100252.16;;;17.00;82.79
23473;BME280;11909;52.516;13.564;2023-09-19T06:33:36;100257.03;;;17.03;82.39
23473;BME280;11909;52.516;13.564;2023-09-19T06:36:07;100251.03;;;16.92;82.64
23473;BME280;11909;52.516;13.564;2023-09-19T06:38:35;100253.03;;;16.83;83.58
23473;BME280;11909;52.516;13.564;2023-09-19T06:41:04;100259.53;;;16.87;83.13
23473;BME280;11909;52.516;13.564;2023-09-19T06:43:34;100256.09;;;16.90;83.31
23473;BME280;11909;52.516;13.564;2023-09-19T06:46:02;100262.41;;;16.99;82.33
23473;BME280;11909;52.516;13.564;2023-09-19T06:48:30;100275.03;;;16.88;83.42
23473;BME280;11909;52.516;13.564;2023-09-19T06:51:00;100270.06;;;17.02;82.15
23473;BME280;11909;52.516;13.564;2023-09-19T06:53:33;100264.53;;;16.94;83.05
23473;BME280;11909;52.516;13.564;2023-09-19T06:56:02;100273.34;;;16.96;82.57
23473;BME280;11909;52.516;13.564;2023-09-19T06:58:30;100281.63;;;17.04;82.03
23473;BME280;11909;52.516;13.564;2023-09-19T07:00:59;100288.66;;;17.02;82.78
23473;BME280;11909;52.516;13.564;2023-09-19T07:03:26;100287.25;;;17.17;81.57
23473;BME280;11909;52.516;13.564;2023-09-19T07:05:55;100279.00;;;17.08;82.12
23473;BME280;11909;52.516;13.564;2023-09-19T07:08:25;100273.91;;;17.10;81.99
23473;BME280;11909;52.516;13.564;2023-09-19T07:10:56;100281.38;;;17.18;81.26
23473;BME280;11909;52.516;13.564;2023-09-19T07:13:24;100282.66;;;17.21;81.67
23473;BME280;11909;52.516;13.564;2023-09-19T07:15:52;100279.09;;;17.20;81.42
23473;BME280;11909;52.516;13.564;2023-09-19T07:18:21;100279.81;;;17.30;81.49
23473;BME280;11909;52.516;13.564;2023-09-19T07:20:49;100284.31;;;17.43;80.93
23473;BME280;11909;52.516;13.564;2023-09-19T07:23:17;100287.34;;;17.51;79.83
23473;BME280;11909;52.516;13.564;2023-09-19T07:25:47;100285.84;;;17.53;81.50
23473;BME280;11909;52.516;13.564;2023-09-19T07:28:17;100291.38;;;17.74;77.25
23473;BME280;11909;52.516;13.564;2023-09-19T07:30:44;100284.13;;;17.82;77.64
23473;BME280;11909;52.516;13.564;2023-09-19T07:33:12;100302.31;;;17.92;76.83
23473;BME280;11909;52.516;13.564;2023-09-19T07:35:45;100312.22;;;18.02;74.38
23473;BME280;11909;52.516;13.564;2023-09-19T07:38:13;100313.34;;;18.01;74.05
23473;BME280;11909;52.516;13.564;2023-09-19T07:40:41;100312.50;;;18.00;74.50
23473;BME280;11909;52.516;13.564;2023-09-19T07:43:10;100322.97;;;18.03;74.55
23473;BME280;11909;52.516;13.564;2023-09-19T07:45:39;100321.94;;;18.08;73.38
23473;BME280;11909;52.516;13.564;2023-09-19T07:48:07;100328.28;;;18.09;73.25
23473;BME280;11909;52.516;13.564;2023-09-19T07:51:04;100331.13;;;18.21;71.67
23473;BME280;11909;52.516;13.564;2023-09-19T07:53:32;100332.59;;;18.18;71.22
23473;BME280;11909;52.516;13.564;2023-09-19T07:56:03;100334.13;;;18.16;70.09
23473;BME280;11909;52.516;13.564;2023-09-19T07:58:31;100341.63;;;18.15;70.54
23473;BME280;11909;52.516;13.564;2023-09-19T08:01:04;100341.53;;;18.12;70.56
23473;BME280;11909;52.516;13.564;2023-09-19T08:03:33;100341.53;;;18.12;70.29
23473;BME280;11909;52.516;13.564;2023-09-19T08:06:04;100361.66;;;18.21;68.29
23473;BME280;11909;52.516;13.564;2023-09-19T08:08:33;100365.81;;;18.15;69.26
23473;BME280;11909;52.516;13.564;2023-09-19T08:11:04;100360.31;;;18.27;68.43
23473;BME280;11909;52.516;13.564;2023-09-19T08:13:38;100357.28;;;18.20;71.45
23473;BME280;11909;52.516;13.564;2023-09-19T08:16:11;100355.28;;;18.20;71.38
23473;BME280;11909;52.516;13.564;2023-09-19T08:18:39;100372.94;;;18.37;66.96
23473;BME280;11909;52.516;13.564;2023-09-19T08:21:07;100367.94;;;18.30;64.14
23473;BME280;11909;52.516;13.564;2023-09-19T08:23:36;100359.69;;;18.22;64.83
23473;BME280;11909;52.516;13.564;2023-09-19T08:26:05;100365.94;;;18.18;65.36
23473;BME280;11909;52.516;13.564;2023-09-19T08:28:34;100360.53;;;18.22;64.67
23473;BME280;11909;52.516;13.564;2023-09-19T08:31:02;100360.13;;;18.11;66.55
23473;BME280;11909;52.516;13.564;2023-09-19T08:33:34;100357.69;;;18.10;67.86
23473;BME280;11909;52.516;13.564;2023-09-19T08:36:03;100368.84;;;18.22;66.81
23473;BME280;11909;52.516;13.564;2023-09-19T08:38:33;100375.69;;;18.25;67.08
23473;BME280;11909;52.516;13.564;2023-09-19T08:41:05;100380.66;;;18.19;65.55
23473;BME280;11909;52.516;13.564;2023-09-19T08:43:34;100376.25;;;18.18;65.33
23473;BME280;11909;52.516;13.564;2023-09-19T08:46:09;100389.59;;;18.25;65.37
23473;BME280;11909;52.516;13.564;2023-09-19T08:48:45;100382.06;;;18.25;67.53
23473;BME280;11909;52.516;13.564;2023-09-19T08:51:18;100385.56;;;18.34;63.86
23473;BME280;11909;52.516;13.564;2023-09-19T08:53:51;100386.97;;;18.41;64.79
23473;BME280;11909;52.516;13.564;2023-09-19T08:56:22;100394.00;;;18.38;64.42
23473;BME280;11909;52.516;13.564;2023-09-19T08:58:55;100382.56;;;18.40;65.47
23473;BME280;11909;52.516;13.564;2023-09-19T09:01:28;100399.63;;;18.63;63.32
23473;BME280;11909;52.516;13.564;2023-09-19T09:04:01;100395.78;;;18.55;61.58
23473;BME280;11909;52.516;13.564;2023-09-19T09:06:29;100399.41;;;18.56;61.39
23473;BME280;11909;52.516;13.564;2023-09-19T09:08:59;100398.69;;;18.46;62.97
23473;BME280;11909;52.516;13.564;2023-09-19T09:11:27;100408.66;;;18.60;62.05
23473;BME280;11909;52.516;13.564;2023-09-19T09:13:56;100411.81;;;18.71;63.63
23473;BME280;11909;52.516;13.564;2023-09-19T09:16:24;100424.69;;;18.88;63.03
23473;BME280;11909;52.516;13.564;2023-09-19T09:18:53;100411.31;;;19.02;63.06
23473;BME280;11909;52.516;13.564;2023-09-19T09:21:25;100413.50;;;19.22;61.37
23473;BME280;11909;52.516;13.564;2023-09-19T09:23:53;100419.56;;;19.36;60.88
23473;BME280;11909;52.516;13.564;2023-09-19T09:26:40;100448.28;;;19.40;58.53
23473;BME280;11909;52.516;13.564;2023-09-19T09:29:09;100439.72;;;19.33;57.62
23473;BME280;11909;52.516;13.564;2023-09-19T09:31:37;100432.97;;;19.59;58.70
23473;BME280;11909;52.516;13.564;2023-09-19T09:34:06;100437.13;;;19.77;57.63
23473;BME280;11909;52.516;13.564;2023-09-19T09:36:37;100438.75;;;19.91;57.17
23473;BME280;11909;52.516;13.564;2023-09-19T09:39:07;100431.72;;;20.10;55.70
23473;BME280;11909;52.516;13.564;2023-09-19T09:41:45;100423.34;;;20.22;57.11
23473;BME280;11909;52.516;13.564;2023-09-19T09:44:14;100431.03;;;20.41;56.46
23473;BME280;11909;52.516;13.564;2023-09-19T09:46:43;100427.38;;;20.53;56.63
23473;BME280;11909;52.516;13.564;2023-09-19T09:49:47;100419.53;;;20.43;54.89
23473;BME280;11909;52.516;13.564;2023-09-19T09:52:22;100441.31;;;20.53;53.29
23473;BME280;11909;52.516;13.564;2023-09-19T09:54:58;100436.88;;;20.36;52.58
23473;BME280;11909;52.516;13.564;2023-09-19T09:57:26;100453.34;;;20.29;52.47
23473;BME280;11909;52.516;13.564;2023-09-19T09:59:55;100452.69;;;20.32;52.50
23473;BME280;11909;52.516;13.564;2023-09-19T10:02:26;100437.91;;;20.31;52.63
23473;BME280;11909;52.516;13.564;2023-09-19T10:04:57;100438.31;;;20.46;52.46
23473;BME280;11909;52.516;13.564;2023-09-19T10:07:42;100436.19;;;20.71;53.12
23473;BME280;11909;52.516;13.564;2023-09-19T10:10:29;100448.69;;;20.90;51.70
23473;BME280;11909;52.516;13.564;2023-09-19T10:13:05;100462.34;;;20.95;49.04
23473;BME280;11909;52.516;13.564;2023-09-19T10:15:35;100464.78;;;20.97;48.13
23473;BME280;11909;52.516;13.564;2023-09-19T10:18:05;100453.97;;;20.95;49.45
23473;BME280;11909;52.516;13.564;2023-09-19T10:20:36;100452.47;;;21.14;49.90
23473;BME280;11909;52.516;13.564;2023-09-19T10:23:09;100468.84;;;21.31;47.71
23473;BME280;11909;52.516;13.564;2023-09-19T10:25:41;100455.25;;;21.14;45.87
23473;BME280;11909;52.516;13.564;2023-09-19T10:28:11;100461.19;;;21.28;46.94
23473;BME280;11909;52.516;13.564;2023-09-19T10:30:44;100463.72;;;21.33;46.56
23473;BME280;11909;52.516;13.564;2023-09-19T10:33:15;100466.59;;;21.21;45.81
23473;BME280;11909;52.516;13.564;2023-09-19T10:35:44;100465.34;;;21.02;45.57
23473;BME280;11909;52.516;13.564;2023-09-19T10:38:17;100460.22;;;21.04;45.73
23473;BME280;11909;52.516;13.564;2023-09-19T10:40:49;100469.38;;;21.05;45.96
23473;BME280;11909;52.516;13.564;2023-09-19T10:43:20;100459.03;;;21.05;46.10
23473;BME280;11909;52.516;13.564;2023-09-19T10:45:49;100456.31;;;21.09;45.32
23473;BME280;11909;52.516;13.564;2023-09-19T10:48:19;100434.09;;;21.13;47.05
23473;BME280;11909;52.516;13.564;2023-09-19T10:50:58;100440.25;;;21.02;46.44
23473;BME280;11909;52.516;13.564;2023-09-19T10:53:41;100452.38;;;20.94;46.24
23473;BME280;11909;52.516;13.564;2023-09-19T10:56:17;100454.22;;;20.74;46.83
23473;BME280;11909;52.516;13.564;2023-09-19T10:58:47;100461.75;;;20.73;46.97
23473;BME280;11909;52.516;13.564;2023-09-19T11:01:16;100458.31;;;20.92;45.96
23473;BME280;11909;52.516;13.564;2023-09-19T11:03:44;100457.78;;;21.03;45.78
23473;BME280;11909;52.516;13.564;2023-09-19T11:06:17;100469.22;;;21.14;45.96
23473;BME280;11909;52.516;13.564;2023-09-19T11:09:01;100461.47;;;21.07;45.42
23473;BME280;11909;52.516;13.564;2023-09-19T11:11:46;100463.44;;;21.06;44.45
23473;BME280;11909;52.516;13.564;2023-09-19T11:14:40;100462.72;;;21.10;43.39
23473;BME280;11909;52.516;13.564;2023-09-19T11:17:33;100457.50;;;21.08;45.26
23473;BME280;11909;52.516;13.564;2023-09-19T11:20:23;100449.34;;;20.99;45.50
23473;BME280;11909;52.516;13.564;2023-09-19T11:23:18;100460.66;;;21.06;44.50
23473;BME280;11909;52.516;13.564;2023-09-19T11:25:51;100466.75;;;20.96;43.76
23473;BME280;11909;52.516;13.564;2023-09-19T11:28:28;100472.09;;;20.73;44.23
23473;BME280;11909;52.516;13.564;2023-09-19T11:30:58;100457.09;;;20.77;44.96
23473;BME280;11909;52.516;13.564;2023-09-19T11:33:26;100464.19;;;20.75;44.45
23473;BME280;11909;52.516;13.564;2023-09-19T11:36:04;100463.59;;;20.82;44.46
23473;BME280;11909;52.516;13.564;2023-09-19T11:38:59;100463.22;;;20.83;44.42
23473;BME280;11909;52.516;13.564;2023-09-19T11:41:40;100469.72;;;20.87;43.54
23473;BME280;11909;52.516;13.564;2023-09-19T11:44:33;100466.59;;;20.89;43.84
23473;BME280;11909;52.516;13.564;2023-09-19T11:47:05;100471.53;;;20.96;43.37
23473;BME280;11909;52.516;13.564;2023-09-19T11:49:33;100472.72;;;21.11;43.45
23473;BME280;11909;52.516;13.564;2023-09-19T11:52:01;100476.06;;;21.00;43.30
23473;BME280;11909;52.516;13.564;2023-09-19T11:54:35;100475.84;;;20.93;45.66
23473;BME280;11909;52.516;13.564;2023-09-19T11:57:08;100479.91;;;20.96;43.21
23473;BME280;11909;52.516;13.564;2023-09-19T11:59:39;100472.91;;;20.73;43.65
23473;BME280;11909;52.516;13.564;2023-09-19T12:02:07;100490.47;;;20.74;42.84
23473;BME280;11909;52.516;13.564;2023-09-19T12:04:38;100474.41;;;20.55;43.20
23473;BME280;11909;52.516;13.564;2023-09-19T12:07:09;100478.16;;;20.46;44.03
23473;BME280;11909;52.516;13.564;2023-09-19T12:09:44;100465.03;;;20.47;44.23
23473;BME280;11909;52.516;13.564;2023-09-19T12:12:21;100482.28;;;20.53;43.31
23473;BME280;11909;52.516;13.564;2023-09-19T12:14:50;100480.47;;;20.44;43.54
23473;BME280;11909;52.516;13.564;2023-09-19T12:17:18;100490.66;;;20.53;42.95
23473;BME280;11909;52.516;13.564;2023-09-19T12:19:50;100489.56;;;20.41;42.68
23473;BME280;11909;52.516;13.564;2023-09-19T12:22:19;100492.03;;;20.30;43.15
23473;BME280;11909;52.516;13.564;2023-09-19T12:24:47;100487.28;;;20.31;43.52
23473;BME280;11909;52.516;13.564;2023-09-19T12:27:17;100495.28;;;20.32;42.99
23473;BME280;11909;52.516;13.564;2023-09-19T12:29:48;100483.09;;;20.25;42.81
23473;BME280;11909;52.516;13.564;2023-09-19T12:32:17;100485.66;;;20.30;42.39
23473;BME280;11909;52.516;13.564;2023-09-19T12:34:51;100488.06;;;20.31;43.05
23473;BME280;11909;52.516;13.564;2023-09-19T12:37:21;100489.34;;;20.34;43.62
23473;BME280;11909;52.516;13.564;2023-09-19T12:40:03;100475.50;;;20.38;43.24
23473;BME280;11909;52.516;13.564;2023-09-19T12:42:42;100495.63;;;20.31;42.73
23473;BME280;11909;52.516;13.564;2023-09-19T12:45:13;100474.16;;;20.31;43.11
23473;BME280;11909;52.516;13.564;2023-09-19T12:51:01;100472.50;;;20.43;42.72
23473;BME280;11909;52.516;13.564;2023-09-19T12:53:34;100482.56;;;20.47;42.02
23473;BME280;11909;52.516;13.564;2023-09-19T12:56:07;100480.59;;;20.48;42.05
23473;BME280;11909;52.516;13.564;2023-09-19T12:58:48;100477.44;;;20.49;42.28
23473;BME280;11909;52.516;13.564;2023-09-19T13:01:18;100482.28;;;20.53;42.29
23473;BME280;11909;52.516;13.564;2023-09-19T13:03:46;100475.22;;;20.55;42.80